Time;durP1;ratioP1;P1;durP2;ratioP2;P2;SDS_P1;SDS_P2;PMS_P1;PMS_P2;Temp;Humidity;BMP_temperature;BMP_pressure;BME280_temperature;BME280_humidity;BME280_pressure;Samples;Min_cycle;Max_cycle;Signal;HPM_P1;HPM_P2
2022/01/11 00:02:00;;;;;;;20.23;9.32;;;;;;;-0.76;88.07;101276.63;5062994;28;20440;-87
2022/01/11 00:04:29;;;;;;;18.85;9.20;;;;;;;-0.61;87.79;101279.59;5064686;28;20040;-87
2022/01/11 00:06:54;;;;;;;16.73;10.02;;;;;;;-0.94;86.53;101289.97;5044118;28;20609;-87
2022/01/11 00:09:29;;;;;;;27.67;12.20;;;;;;;-1.00;87.51;101280.72;5064150;28;20020;-88
2022/01/11 00:11:54;;;;;;;20.42;10.10;;;;;;;-0.65;87.58;101283.56;5064979;28;20031;-88
2022/01/11 00:14:19;;;;;;;15.60;7.90;;;;;;;-0.49;85.00;101284.72;5061952;28;20024;-87
2022/01/11 00:16:45;;;;;;;19.75;9.65;;;;;;;-0.62;86.49;101291.31;5064621;28;20131;-88
2022/01/11 00:19:13;;;;;;;21.10;9.93;;;;;;;-0.37;86.29;101285.34;5062653;28;20028;-88
2022/01/11 00:21:45;;;;;;;24.23;11.13;;;;;;;-0.09;84.52;101293.25;5064223;28;20082;-87
2022/01/11 00:24:29;;;;;;;20.20;9.52;;;;;;;-0.43;85.07;101292.16;5063709;28;20694;-88
2022/01/11 00:27:07;;;;;;;18.58;9.73;;;;;;;-0.55;86.26;101293.38;5063009;28;20347;-88
2022/01/11 00:29:34;;;;;;;20.52;8.90;;;;;;;-0.76;85.93;101303.41;5064036;28;20511;-87
2022/01/11 00:32:05;;;;;;;20.05;8.35;;;;;;;-1.01;87.08;101288.88;5052942;28;20410;-87
2022/01/11 00:34:40;;;;;;;19.02;7.50;;;;;;;-1.03;87.30;101296.22;5054661;28;20032;-87
2022/01/11 00:37:07;;;;;;;22.40;9.63;;;;;;;-1.06;87.33;101295.53;5034381;28;20119;-87
2022/01/11 00:39:33;;;;;;;52.38;11.50;;;;;;;-0.88;87.63;101302.78;5044932;28;20049;-87
2022/01/11 00:41:58;;;;;;;15.82;8.38;;;;;;;-0.92;86.20;101308.56;5026268;28;20087;-87
2022/01/11 00:44:24;;;;;;;15.68;8.00;;;;;;;-0.86;87.00;101313.34;5042859;28;20021;-87
2022/01/11 00:46:50;;;;;;;20.42;9.65;;;;;;;-0.93;86.41;101305.03;5044755;28;20459;-87
2022/01/11 00:49:16;;;;;;;15.40;8.15;;;;;;;-0.69;86.99;101302.78;5043030;28;20032;-88
2022/01/11 00:51:41;;;;;;;20.40;10.18;;;;;;;0.05;85.06;101291.84;5044197;28;20043;-87
2022/01/11 00:54:07;;;;;;;17.92;8.02;;;;;;;0.52;82.45;101300.50;5042774;28;20376;-88
2022/01/11 00:56:32;;;;;;;17.80;8.40;;;;;;;-0.46;83.51;101305.84;5026172;28;20244;-87
2022/01/11 00:58:57;;;;;;;20.13;8.38;;;;;;;-0.71;85.81;101300.25;5043373;28;20033;-88
2022/01/11 01:01:23;;;;;;;16.40;7.13;;;;;;;-0.88;85.91;101297.41;5025408;28;20060;-88
2022/01/11 01:03:49;;;;;;;21.15;9.43;;;;;;;-0.83;86.46;101294.25;5026679;28;20502;-87
2022/01/11 01:06:14;;;;;;;22.73;9.70;;;;;;;0.00;84.50;101283.44;5043163;28;20123;-87
2022/01/11 01:08:39;;;;;;;15.68;8.35;;;;;;;-0.35;83.96;101294.06;5043450;28;20614;-87
2022/01/11 01:11:05;;;;;;;21.05;8.43;;;;;;;-0.43;84.94;101297.53;5042672;28;20040;-88
2022/01/11 01:13:30;;;;;;;17.83;8.43;;;;;;;-0.57;85.25;101292.69;5026437;28;20039;-88
2022/01/11 01:15:56;;;;;;;17.73;9.35;;;;;;;-0.54;85.09;101300.41;5043495;28;20523;-87
2022/01/11 01:18:25;;;;;;;15.40;7.47;;;;;;;-0.67;85.75;101300.81;5043131;28;20056;-87
2022/01/11 01:20:53;;;;;;;14.05;8.98;;;;;;;-0.72;85.42;101309.28;5043821;28;20471;-87
2022/01/11 01:23:19;;;;;;;16.10;7.72;;;;;;;-0.25;84.90;101299.34;5042870;28;20040;-87
2022/01/11 01:25:46;;;;;;;18.30;8.93;;;;;;;0.31;83.76;101293.69;5043970;28;20032;-87
2022/01/11 01:28:12;;;;;;;15.82;7.03;;;;;;;0.54;82.34;101294.97;5042556;28;20024;-88
2022/01/11 01:30:39;;;;;;;14.50;7.97;;;;;;;0.75;81.43;101304.47;5032171;28;20487;-87
2022/01/11 01:33:05;;;;;;;18.63;7.95;;;;;;;0.81;81.68;101309.19;5063983;28;20090;-88
2022/01/11 01:35:38;;;;;;;13.90;7.25;;;;;;;0.97;80.81;101302.19;5063388;28;20712;-87
2022/01/11 01:38:03;;;;;;;18.38;7.57;;;;;;;1.14;79.58;101305.78;5045586;28;20067;-87
2022/01/11 01:40:36;;;;;;;10.82;6.72;;;;;;;1.27;79.64;101307.97;5063200;28;20541;-86
2022/01/11 01:43:04;;;;;;;13.80;7.38;;;;;;;1.11;80.00;101308.78;5064575;28;20036;-87
2022/01/11 01:45:30;;;;;;;14.85;7.20;;;;;;;0.83;80.68;101309.88;5063025;28;20526;-86
2022/01/11 01:47:57;;;;;;;18.83;7.88;;;;;;;0.69;81.59;101316.72;5063891;28;20029;-88
2022/01/11 01:50:26;;;;;;;15.95;6.22;;;;;;;0.60;82.04;101312.28;5062723;28;20539;-87
2022/01/11 01:52:54;;;;;;;19.20;8.07;;;;;;;0.81;81.36;101319.94;5062853;28;20024;-86
2022/01/11 01:55:20;;;;;;;20.65;7.82;;;;;;;0.93;79.77;101324.03;5046150;28;20040;-87
2022/01/11 01:57:45;;;;;;;13.80;7.20;;;;;;;0.98;79.59;101326.22;5063081;28;20538;-86
2022/01/11 02:03:04;;;;;;;13.95;7.43;;;;;;;-0.10;83.92;101329.09;5059162;28;20039;-87
2022/01/11 02:05:30;;;;;;;18.23;8.60;;;;;;;-0.34;84.32;101346.66;5063391;28;20032;-86
2022/01/11 02:07:55;;;;;;;14.27;9.45;;;;;;;-0.55;85.28;101336.25;5063799;28;20475;-86
2022/01/11 02:10:20;;;;;;;15.25;8.93;;;;;;;-0.73;86.11;101345.94;5062930;28;20028;-86
2022/01/11 02:12:46;;;;;;;21.10;10.60;;;;;;;-0.86;85.98;101350.81;5064321;28;20416;-86
2022/01/11 02:18:07;;;;;;;20.50;10.23;;;;;;;-0.64;84.51;101338.84;5060160;28;20097;-86
2022/01/11 02:20:33;;;;;;;18.13;8.48;;;;;;;-0.69;85.06;101340.31;5062311;28;20032;-87
2022/01/11 02:22:58;;;;;;;14.85;7.60;;;;;;;-0.76;85.43;101346.25;5061760;28;20031;-87
2022/01/11 02:25:23;;;;;;;11.98;6.13;;;;;;;-0.88;85.42;101348.31;5063246;28;20028;-87
2022/01/11 02:27:49;;;;;;;15.63;8.77;;;;;;;-0.93;85.71;101345.22;5062133;28;20059;-86
2022/01/11 02:30:14;;;;;;;15.98;8.82;;;;;;;-1.14;86.46;101348.16;5062940;28;20087;-86
2022/01/11 02:32:52;;;;;;;14.65;7.90;;;;;;;-1.15;86.72;101349.97;5043627;28;20111;-87
2022/01/11 02:35:18;;;;;;;13.82;7.22;;;;;;;-1.23;86.91;101350.72;5063058;28;20024;-87
2022/01/11 02:37:44;;;;;;;14.15;7.25;;;;;;;-1.28;86.82;101352.16;5062437;28;20025;-87
2022/01/11 02:40:12;;;;;;;13.27;6.50;;;;;;;-1.15;86.98;101355.34;5062628;28;20053;-86
2022/01/11 02:42:38;;;;;;;10.60;5.47;;;;;;;-1.10;87.57;101355.72;5063141;28;20032;-87
2022/01/11 02:45:03;;;;;;;15.57;6.93;;;;;;;-1.01;86.60;101354.00;5061958;28;20031;-87
2022/01/11 02:47:28;;;;;;;15.15;7.32;;;;;;;-0.74;86.07;101356.81;5063654;28;20031;-86
2022/01/11 02:49:54;;;;;;;18.48;8.65;;;;;;;-0.88;86.11;101359.03;5065375;28;20101;-86
2022/01/11 02:52:19;;;;;;;13.70;7.53;;;;;;;-0.77;85.56;101360.63;5066158;28;20035;-86
2022/01/11 02:57:28;;;;;;;15.30;7.63;;;;;;;-1.20;86.44;101371.00;5060223;28;20047;-86
2022/01/11 02:59:54;;;;;;;17.98;8.55;;;;;;;-1.28;86.71;101373.56;5066940;28;20024;-86
2022/01/11 03:02:22;;;;;;;16.15;9.20;;;;;;;-1.42;87.39;101373.03;5064801;28;20593;-85
2022/01/11 03:04:47;;;;;;;11.80;7.40;;;;;;;-1.34;87.66;101375.81;5048488;28;20038;-85
2022/01/11 03:07:18;;;;;;;12.18;7.85;;;;;;;-1.45;86.90;101382.22;5046937;28;20028;-87
2022/01/11 03:10:03;;;;;;;11.80;6.40;;;;;;;-1.27;86.43;101383.28;5066831;28;20095;-85
2022/01/11 03:12:30;;;;;;;14.70;6.95;;;;;;;-1.06;86.69;101372.34;5065226;28;20024;-86
2022/01/11 03:14:55;;;;;;;16.98;7.32;;;;;;;-0.82;86.33;101379.00;5066039;28;20111;-86
2022/01/11 03:17:21;;;;;;;17.00;6.63;;;;;;;-0.90;85.91;101382.44;5066931;28;20105;-85
2022/01/11 03:19:46;;;;;;;13.57;5.85;;;;;;;-0.66;84.91;101381.03;5064565;28;20421;-86
2022/01/11 03:22:12;;;;;;;10.07;6.13;;;;;;;-0.56;84.36;101386.31;5066702;28;20276;-85
2022/01/11 03:24:38;;;;;;;15.40;7.82;;;;;;;-0.61;85.12;101384.09;5065137;28;20058;-87
2022/01/11 03:27:06;;;;;;;16.98;7.82;;;;;;;-0.13;83.67;101389.28;5066861;28;20032;-85
2022/01/11 03:29:32;;;;;;;12.48;4.38;;;;;;;0.43;81.43;101384.66;5065482;28;20036;-86
2022/01/11 03:31:57;;;;;;;15.60;4.65;;;;;;;0.62;80.00;101380.06;5064425;28;20442;-86
2022/01/11 03:34:22;;;;;;;9.95;4.32;;;;;;;0.77;79.34;101378.47;5065694;28;20025;-85
2022/01/11 03:36:48;;;;;;;9.63;5.03;;;;;;;0.72;78.82;101390.69;5046640;28;20475;-86
2022/01/11 03:39:13;;;;;;;8.95;4.53;;;;;;;0.75;78.77;101375.16;5065408;28;20098;-86
2022/01/11 03:41:38;;;;;;;8.32;4.72;;;;;;;0.80;78.83;101371.94;5064236;28;20032;-86
2022/01/11 03:44:04;;;;;;;8.25;4.65;;;;;;;0.89;78.02;101381.75;5066165;28;20422;-85
2022/01/11 03:46:30;;;;;;;8.32;3.90;;;;;;;0.97;77.49;101378.25;5063783;28;20545;-86
2022/01/11 03:48:55;;;;;;;12.85;4.25;;;;;;;1.20;76.56;101385.72;5065798;28;20470;-86
2022/01/11 03:51:20;;;;;;;10.25;4.47;;;;;;;1.24;75.69;101381.72;5064922;28;20028;-86
2022/01/11 03:53:55;;;;;;;8.63;3.72;;;;;;;1.11;76.66;101376.81;5046729;28;20115;-84
2022/01/11 03:56:23;;;;;;;9.15;4.22;;;;;;;0.58;78.02;101375.03;5047183;28;20090;-85
2022/01/11 03:58:50;;;;;;;8.23;4.55;;;;;;;-0.22;80.53;101382.13;5063441;28;20135;-86
2022/01/11 04:01:16;;;;;;;7.85;4.43;;;;;;;0.02;81.44;101371.78;5065900;28;20029;-86
2022/01/11 04:03:41;;;;;;;9.80;5.07;;;;;;;0.03;80.85;101382.34;5064333;28;20032;-86
2022/01/11 04:06:07;;;;;;;9.23;4.13;;;;;;;0.08;80.51;101381.91;5064936;28;20032;-85
2022/01/11 04:08:32;;;;;;;12.40;6.18;;;;;;;0.09;79.82;101387.09;5065021;28;20024;-86
2022/01/11 04:10:57;;;;;;;12.60;6.45;;;;;;;-0.42;82.18;101387.63;5064412;28;20035;-86
2022/01/11 04:13:23;;;;;;;14.02;7.68;;;;;;;-0.42;83.01;101386.78;5064419;28;20558;-86
2022/01/11 04:15:49;;;;;;;13.75;6.82;;;;;;;-0.41;82.44;101381.28;5046012;28;20115;-85
2022/01/11 04:18:14;;;;;;;15.00;5.78;;;;;;;-0.66;82.90;101389.06;5065271;28;20020;-85
2022/01/11 04:20:40;;;;;;;13.50;6.70;;;;;;;-0.98;83.64;101390.34;5063639;28;20067;-86
2022/01/11 04:23:08;;;;;;;15.65;6.97;;;;;;;-0.73;84.13;101393.31;5064835;28;20058;-86
2022/01/11 04:25:46;;;;;;;16.55;8.18;;;;;;;-0.63;83.23;101394.09;5063608;28;20491;-86
2022/01/11 04:28:12;;;;;;;10.80;5.38;;;;;;;-0.56;83.63;101394.34;5063741;28;20115;-86
2022/01/11 04:30:37;;;;;;;16.30;8.00;;;;;;;-0.44;83.52;101397.66;5064359;28;20040;-85
2022/01/11 04:33:03;;;;;;;11.95;7.40;;;;;;;-0.77;84.71;101398.13;5063117;28;20570;-85
2022/01/11 04:35:28;;;;;;;14.00;6.80;;;;;;;-1.00;84.39;101386.97;5064696;28;20024;-85
2022/01/11 04:37:54;;;;;;;11.18;4.60;;;;;;;-1.04;84.60;101396.31;5062998;28;20036;-86
2022/01/11 04:40:19;;;;;;;22.83;6.93;;;;;;;-1.08;85.05;101395.75;5066106;28;20399;-84
2022/01/11 04:42:45;;;;;;;13.23;5.70;;;;;;;-1.21;84.06;101402.28;5062753;28;20024;-86
2022/01/11 04:45:12;;;;;;;14.13;6.82;;;;;;;-1.30;84.58;101393.28;5045192;28;20044;-85
2022/01/11 04:47:37;;;;;;;16.75;8.13;;;;;;;-1.33;85.27;101388.22;5064488;28;20025;-85
2022/01/11 04:53:06;;;;;;;9.13;4.25;;;;;;;-1.19;83.66;101391.41;5059800;28;20093;-85
2022/01/11 04:55:32;;;;;;;14.02;5.55;;;;;;;-1.19;84.15;101384.25;5062927;28;20079;-86
2022/01/11 04:57:58;;;;;;;10.70;5.05;;;;;;;-0.71;83.21;101396.69;5046221;28;20071;-85
2022/01/11 05:00:24;;;;;;;13.45;5.10;;;;;;;-1.00;83.96;101403.03;5063772;28;20036;-85
2022/01/11 05:02:50;;;;;;;13.10;4.20;;;;;;;-1.10;84.30;101403.91;5063071;28;20024;-85
2022/01/11 05:05:16;;;;;;;8.43;4.05;;;;;;;-1.23;84.10;101403.41;5064483;28;20054;-85
2022/01/11 05:07:46;;;;;;;9.55;4.55;;;;;;;-0.78;83.42;101406.31;5062623;28;20858;-86
2022/01/11 05:10:12;;;;;;;10.07;3.67;;;;;;;-0.94;82.12;101403.28;5046936;28;20114;-85
2022/01/11 05:12:38;;;;;;;7.47;3.30;;;;;;;-0.88;83.18;101412.59;5044272;28;20016;-86
2022/01/11 05:15:09;;;;;;;11.40;3.67;;;;;;;-1.03;82.51;101404.19;5063489;28;20082;-86
2022/01/11 05:17:35;;;;;;;6.78;2.85;;;;;;;-0.71;82.46;101404.72;5046063;28;20036;-86
2022/01/11 05:20:01;;;;;;;8.75;4.50;;;;;;;-0.31;80.20;101417.91;5063342;28;20031;-84
2022/01/11 05:22:26;;;;;;;6.43;3.45;;;;;;;0.11;78.68;101422.66;5046352;28;20024;-86
2022/01/11 05:24:51;;;;;;;9.50;4.00;;;;;;;0.13;78.69;101419.81;5062822;28;20020;-85
2022/01/11 05:27:17;;;;;;;15.15;6.35;;;;;;;-0.39;80.70;101422.19;5045545;28;20025;-85
2022/01/11 05:29:42;;;;;;;10.63;5.28;;;;;;;-0.69;81.77;101421.50;5062174;28;20036;-85
2022/01/11 05:32:08;;;;;;;10.75;4.70;;;;;;;-0.67;81.85;101414.16;5064091;28;20053;-85
2022/01/11 05:34:33;;;;;;;10.30;5.63;;;;;;;-1.14;83.60;101415.91;5062755;28;20062;-85
2022/01/11 05:40:03;;;;;;;17.63;6.68;;;;;;;-1.55;84.92;101433.06;5062510;28;20131;-85
2022/01/11 05:42:29;;;;;;;15.60;7.38;;;;;;;-1.44;85.23;101433.88;5062458;28;20027;-85
2022/01/11 05:44:54;;;;;;;9.45;5.53;;;;;;;-1.53;84.48;101436.41;5062874;28;20054;-85
2022/01/11 05:47:20;;;;;;;10.65;5.05;;;;;;;-1.49;84.53;101446.84;5061906;28;20040;-85
2022/01/11 05:49:45;;;;;;;15.15;5.68;;;;;;;-1.54;85.12;101442.78;5063386;28;20028;-85
2022/01/11 05:52:10;;;;;;;10.65;4.13;;;;;;;-1.58;84.42;101449.41;5063173;28;20029;-86
2022/01/11 05:54:36;;;;;;;9.20;4.82;;;;;;;-1.65;84.65;101453.63;5062581;28;20025;-84
2022/01/11 05:57:01;;;;;;;10.27;4.65;;;;;;;-1.56;85.93;101455.44;5063944;28;20051;-85
2022/01/11 05:59:27;;;;;;;10.05;5.20;;;;;;;-1.61;85.19;101452.38;5062258;28;20024;-85
2022/01/11 06:01:52;;;;;;;10.68;4.75;;;;;;;-1.36;84.64;101452.75;5063525;28;20024;-85
2022/01/11 06:04:17;;;;;;;12.75;5.35;;;;;;;-1.38;84.13;101444.00;5062656;28;20920;-85
2022/01/11 06:06:43;;;;;;;10.25;5.22;;;;;;;-1.21;83.59;101444.25;5064106;28;20028;-85
2022/01/11 06:09:08;;;;;;;13.13;5.35;;;;;;;-1.17;84.47;101440.31;5045071;28;20016;-85
2022/01/11 06:11:33;;;;;;;12.02;5.47;;;;;;;-1.03;83.65;101446.16;5063020;28;20046;-84
2022/01/11 06:13:58;;;;;;;9.20;4.70;;;;;;;-0.79;82.76;101442.16;5063368;28;20052;-85
2022/01/11 06:16:24;;;;;;;12.27;5.35;;;;;;;-0.14;79.94;101438.53;5061925;28;20036;-85
2022/01/11 06:21:34;;;;;;;10.70;4.78;;;;;;;0.38;77.45;101444.19;5062525;28;20042;-85
2022/01/11 06:23:59;;;;;;;10.63;5.22;;;;;;;0.39;77.04;101437.81;5068038;28;20029;-85
2022/01/11 06:26:24;;;;;;;8.55;3.85;;;;;;;0.48;76.18;101438.72;5066506;28;20021;-85
2022/01/11 06:28:49;;;;;;;11.40;4.22;;;;;;;0.45;76.87;101447.06;5065932;28;20460;-85
2022/01/11 06:31:15;;;;;;;10.93;4.85;;;;;;;0.64;75.99;101437.16;5067435;28;20036;-84
2022/01/11 06:33:40;;;;;;;9.32;4.35;;;;;;;0.33;77.04;101455.38;5045604;28;20040;-85
2022/01/11 06:36:10;;;;;;;13.63;4.82;;;;;;;0.64;75.78;101453.25;5066813;28;20024;-84
2022/01/11 06:38:38;;;;;;;11.20;6.28;;;;;;;0.80;74.57;101450.69;5061874;28;20027;-85
2022/01/11 06:41:04;;;;;;;14.93;5.70;;;;;;;0.67;75.04;101452.94;5047743;28;21467;-85
2022/01/11 06:43:29;;;;;;;8.77;3.70;;;;;;;0.39;75.76;101456.59;5065261;28;20051;-85
2022/01/11 06:45:55;;;;;;;11.85;4.93;;;;;;;0.14;76.67;101464.44;5051665;28;20056;-84
2022/01/11 06:48:20;;;;;;;8.45;3.70;;;;;;;-0.05;77.98;101466.28;5066248;28;20090;-85
2022/01/11 06:50:45;;;;;;;11.00;4.55;;;;;;;-0.18;78.84;101477.34;5064640;28;20571;-85
2022/01/11 06:53:11;;;;;;;5.38;3.05;;;;;;;-0.37;79.90;101476.47;5067264;28;20032;-85
2022/01/11 06:55:36;;;;;;;7.65;2.63;;;;;;;0.13;78.16;101478.00;5064099;28;20051;-85
2022/01/11 06:58:02;;;;;;;7.07;2.90;;;;;;;0.48;75.92;101478.13;5066168;28;20091;-85
2022/01/11 07:00:27;;;;;;;9.93;3.80;;;;;;;0.49;75.94;101482.53;5065425;28;21030;-85
2022/01/11 07:02:52;;;;;;;8.38;3.67;;;;;;;0.56;76.49;101481.72;5065989;28;20480;-85
2022/01/11 07:05:18;;;;;;;8.13;3.63;;;;;;;0.87;74.49;101484.97;5041803;28;20115;-85
2022/01/11 07:07:43;;;;;;;11.77;3.15;;;;;;;1.04;74.44;101481.38;5046981;28;20032;-85
2022/01/11 07:10:09;;;;;;;11.50;3.92;;;;;;;0.86;74.69;101484.13;5065853;28;20033;-85
2022/01/11 07:12:34;;;;;;;6.72;3.33;;;;;;;0.58;74.93;101484.25;5065062;28;20024;-84
2022/01/11 07:15:00;;;;;;;11.15;4.63;;;;;;;-0.17;78.62;101487.09;5065462;28;20024;-85
2022/01/11 07:17:25;;;;;;;6.93;3.67;;;;;;;0.01;78.96;101482.75;5064336;28;20063;-86
2022/01/11 07:19:51;;;;;;;5.38;3.25;;;;;;;0.44;76.65;101481.13;5066804;28;20017;-86
2022/01/11 07:22:16;;;;;;;12.82;4.45;;;;;;;0.54;75.71;101491.78;5044879;28;20032;-86
2022/01/11 07:24:42;;;;;;;5.65;3.10;;;;;;;0.84;74.91;101479.91;5064139;28;20432;-85
2022/01/11 07:27:07;;;;;;;7.97;3.85;;;;;;;0.93;73.78;101490.56;5065918;28;20078;-86
2022/01/11 07:29:32;;;;;;;9.00;3.47;;;;;;;1.14;73.89;101485.81;5046992;28;20514;-85
2022/01/11 07:31:58;;;;;;;6.75;3.17;;;;;;;0.89;74.12;101481.13;5064975;28;20173;-85
2022/01/11 07:37:07;;;;;;;6.25;2.97;;;;;;;1.21;73.86;101497.59;5060500;28;20047;-85
2022/01/11 07:39:33;;;;;;;7.78;2.55;;;;;;;1.24;73.29;101491.06;5075901;28;20028;-86
2022/01/11 07:41:58;;;;;;;7.30;2.97;;;;;;;1.15;73.52;101492.84;5064734;28;20024;-85
2022/01/11 07:44:24;;;;;;;8.93;3.92;;;;;;;1.10;74.08;101500.56;5046189;28;20085;-85
2022/01/11 07:46:52;;;;;;;6.07;3.15;;;;;;;1.28;72.77;101500.50;5063737;28;20040;-85
2022/01/11 07:49:17;;;;;;;8.15;3.33;;;;;;;1.14;73.25;101502.75;5046458;28;20021;-85
2022/01/11 07:51:43;;;;;;;8.30;3.40;;;;;;;1.15;73.81;101504.47;5045543;28;20518;-86
2022/01/11 07:54:08;;;;;;;8.07;3.97;;;;;;;1.11;73.84;101505.78;5046319;28;20035;-86
2022/01/11 07:56:33;;;;;;;10.20;3.55;;;;;;;1.33;73.44;101516.13;5064029;28;20033;-85
2022/01/11 07:58:58;;;;;;;11.57;4.65;;;;;;;1.23;73.90;101516.25;5046493;28;20048;-85
2022/01/11 08:01:24;;;;;;;6.82;3.08;;;;;;;1.27;73.94;101529.22;5065168;28;20025;-86
2022/01/11 08:03:49;;;;;;;10.02;4.90;;;;;;;1.28;74.24;101525.50;5063123;28;20024;-86
2022/01/11 08:06:15;;;;;;;11.23;4.93;;;;;;;1.20;74.04;101524.63;5063010;28;20127;-85
2022/01/11 08:08:41;;;;;;;12.73;3.35;;;;;;;1.27;73.82;101518.47;5062544;28;20024;-85
2022/01/11 08:11:07;;;;;;;6.50;2.72;;;;;;;1.35;73.39;101520.34;5075459;28;20016;-86
2022/01/11 08:13:33;;;;;;;8.00;3.05;;;;;;;1.35;73.16;101523.03;5061061;28;20043;-85
2022/01/11 08:15:58;;;;;;;7.25;2.88;;;;;;;1.38;73.32;101519.19;5062636;28;20021;-85
2022/01/11 08:18:23;;;;;;;8.70;4.30;;;;;;;1.24;74.05;101518.75;5063045;28;20060;-86
2022/01/11 08:20:49;;;;;;;8.07;2.95;;;;;;;1.28;74.58;101524.69;5064370;28;20017;-85
2022/01/11 08:23:14;;;;;;;6.80;3.60;;;;;;;1.40;73.73;101527.94;5045201;28;20032;-86
2022/01/11 08:25:40;;;;;;;8.10;3.00;;;;;;;1.77;73.03;101522.38;5062561;28;20016;-85
2022/01/11 08:28:07;;;;;;;10.60;3.33;;;;;;;1.53;73.06;101527.47;5064502;28;20031;-86
2022/01/11 08:30:34;;;;;;;10.43;2.90;;;;;;;1.66;73.68;101527.03;5061851;28;20047;-85
2022/01/11 08:32:59;;;;;;;13.02;4.43;;;;;;;1.69;72.85;101520.50;5065530;28;20021;-86
2022/01/11 08:35:25;;;;;;;8.15;3.30;;;;;;;1.77;72.73;101522.38;5044383;28;20051;-85
2022/01/11 08:37:51;;;;;;;5.30;2.53;;;;;;;1.89;72.04;101523.78;5046448;28;21120;-84
2022/01/11 08:40:17;;;;;;;7.53;2.97;;;;;;;1.92;72.30;101530.66;5064434;28;20024;-85
2022/01/11 08:42:56;;;;;;;6.28;2.25;;;;;;;1.93;71.78;101535.03;5062429;28;20614;-86
2022/01/11 08:45:21;;;;;;;7.35;3.13;;;;;;;2.02;72.58;101542.13;5064185;28;20039;-85
2022/01/11 08:47:47;;;;;;;8.93;2.92;;;;;;;2.01;72.25;101540.44;5062958;28;21001;-85
2022/01/11 08:50:14;;;;;;;10.60;2.13;;;;;;;2.14;72.27;101550.72;5064155;28;20074;-85
2022/01/11 08:52:41;;;;;;;5.90;2.83;;;;;;;2.19;71.48;101548.41;5062567;28;20059;-85
2022/01/11 08:55:08;;;;;;;4.32;2.40;;;;;;;2.15;72.09;101557.81;5062888;28;20036;-86
2022/01/11 08:57:34;;;;;;;7.30;2.65;;;;;;;2.27;70.93;101555.66;5044075;28;20071;-85
2022/01/11 09:00:02;;;;;;;5.47;2.92;;;;;;;2.21;71.57;101550.91;5062993;28;20025;-85
2022/01/11 09:02:28;;;;;;;4.32;2.17;;;;;;;2.23;71.33;101556.97;5064081;28;20032;-86
2022/01/11 09:04:53;;;;;;;6.07;2.42;;;;;;;2.26;71.88;101558.50;5062550;28;20893;-85
2022/01/11 09:07:19;;;;;;;7.28;3.58;;;;;;;2.24;72.05;101549.75;5063743;28;20020;-84
2022/01/11 09:09:45;;;;;;;7.03;2.88;;;;;;;2.32;71.43;101553.28;5061631;28;20058;-86
2022/01/11 09:12:13;;;;;;;6.57;2.28;;;;;;;2.37;71.65;101546.56;5063272;28;20418;-85
2022/01/11 09:14:39;;;;;;;5.88;2.55;;;;;;;2.35;71.60;101552.13;5063427;28;20035;-85
2022/01/11 09:17:04;;;;;;;9.25;2.88;;;;;;;2.52;71.63;101552.16;5043942;28;20978;-85
2022/01/11 09:19:42;;;;;;;9.52;3.63;;;;;;;2.57;71.40;101555.16;5046599;28;20059;-86
2022/01/11 09:22:08;;;;;;;7.22;2.60;;;;;;;2.73;70.71;101556.19;5043853;28;20108;-86
2022/01/11 09:24:35;;;;;;;6.03;2.00;;;;;;;2.72;70.79;101554.50;5044818;28;20032;-85
2022/01/11 09:27:04;;;;;;;8.02;3.58;;;;;;;2.64;71.51;101566.97;5061963;28;20016;-86
2022/01/11 09:29:32;;;;;;;6.93;3.08;;;;;;;2.95;71.42;101562.75;5063052;28;20321;-85
2022/01/11 09:31:59;;;;;;;6.85;3.15;;;;;;;2.89;70.31;101566.97;5062796;28;20051;-85
2022/01/11 09:34:25;;;;;;;10.77;3.50;;;;;;;2.86;70.37;101564.63;5061854;28;20350;-85
2022/01/11 09:36:50;;;;;;;10.43;3.90;;;;;;;2.94;70.58;101566.47;5063724;28;20025;-86
2022/01/11 09:39:16;;;;;;;9.70;3.50;;;;;;;2.90;70.38;101568.66;5061804;28;20475;-85
2022/01/11 09:41:41;;;;;;;9.82;3.35;;;;;;;2.94;70.54;101573.69;5044518;28;20302;-85
2022/01/11 09:44:07;;;;;;;5.15;2.80;;;;;;;3.02;70.99;101565.59;5062050;28;20017;-85
2022/01/11 09:46:46;;;;;;;10.93;4.40;;;;;;;3.00;70.09;101568.47;5062926;28;20024;-85
2022/01/11 09:49:11;;;;;;;9.68;4.00;;;;;;;3.02;70.62;101568.31;5063417;28;20025;-86
2022/01/11 09:51:37;;;;;;;9.23;2.45;;;;;;;2.99;70.83;101574.06;5061992;28;20174;-85
2022/01/11 09:54:04;;;;;;;7.40;3.65;;;;;;;3.23;71.08;101577.72;5044541;28;20032;-85
2022/01/11 09:56:29;;;;;;;8.75;3.67;;;;;;;3.34;70.50;101574.66;5045587;28;20041;-85
2022/01/11 09:58:55;;;;;;;6.95;3.40;;;;;;;3.20;70.80;101575.34;5066784;28;20039;-85
2022/01/11 10:04:11;;;;;;;12.07;4.30;;;;;;;3.23;70.29;101577.72;5062097;28;20067;-87
2022/01/11 10:06:39;;;;;;;11.25;3.08;;;;;;;3.35;70.64;101576.34;5067134;28;20082;-86
2022/01/11 10:09:20;;;;;;;6.07;3.00;;;;;;;3.29;71.19;101574.34;5066482;28;20028;-86
2022/01/11 10:11:49;;;;;;;18.13;6.18;;;;;;;3.17;71.33;101571.16;5066812;28;20494;-86
2022/01/11 10:14:24;;;;;;;9.77;5.10;;;;;;;3.42;71.01;101563.00;5047864;28;20032;-85
2022/01/11 10:17:15;;;;;;;10.55;4.18;;;;;;;3.35;71.31;101564.72;5067137;28;20032;-85
2022/01/11 10:19:48;;;;;;;10.75;3.40;;;;;;;3.51;71.11;101555.75;5067123;28;20024;-87
2022/01/11 10:22:21;;;;;;;7.88;3.25;;;;;;;3.38;71.26;101561.66;5047809;28;20028;-85
2022/01/11 10:24:53;;;;;;;8.73;4.20;;;;;;;3.46;71.42;101558.94;5066843;28;20090;-86
2022/01/11 10:27:25;;;;;;;17.90;4.63;;;;;;;3.45;71.93;101559.97;5065795;28;20098;-87
2022/01/11 10:29:53;;;;;;;9.10;3.60;;;;;;;3.41;72.61;101565.88;5066768;28;20035;-86
2022/01/11 10:32:31;;;;;;;9.27;3.97;;;;;;;3.47;73.36;101565.19;5066116;28;20074;-86
2022/01/11 10:35:01;;;;;;;13.93;5.15;;;;;;;3.59;72.94;101571.91;5065488;28;20435;-86
2022/01/11 10:37:48;;;;;;;9.95;3.47;;;;;;;3.60;72.98;101565.47;5066133;28;20118;-86
2022/01/11 10:40:20;;;;;;;15.40;5.53;;;;;;;3.56;74.41;101568.72;5065177;28;20723;-86
2022/01/11 10:42:58;;;;;;;8.88;4.15;;;;;;;3.58;74.53;101567.50;5065537;28;20032;-87
2022/01/11 10:45:33;;;;;;;12.25;5.30;;;;;;;3.69;73.38;101569.00;5036508;28;20025;-87
2022/01/11 10:48:03;;;;;;;17.60;5.72;;;;;;;3.77;73.32;101570.81;5064896;28;20395;-88
2022/01/11 10:50:34;;;;;;;22.85;7.00;;;;;;;3.83;73.25;101567.44;5048266;28;20136;-89
2022/01/11 10:53:03;;;;;;;12.23;4.80;;;;;;;4.02;73.14;101568.03;5065855;28;20066;-89
2022/01/11 10:55:31;;;;;;;12.05;5.50;;;;;;;4.02;72.88;101562.63;5067196;28;20521;-89
2022/01/11 10:58:11;;;;;;;15.57;5.15;;;;;;;4.21;72.56;101560.47;5064522;28;20020;-90
2022/01/11 11:00:43;;;;;;;15.15;5.22;;;;;;;4.30;72.16;101564.81;5064676;28;20050;-90
2022/01/11 11:03:15;;;;;;;10.98;5.18;;;;;;;4.19;72.28;101568.75;5066019;28;20031;-90
2022/01/11 11:05:56;;;;;;;12.75;5.80;;;;;;;4.44;72.42;101570.47;5064992;28;20031;-90
2022/01/11 11:08:30;;;;;;;10.90;4.75;;;;;;;4.42;72.34;101572.50;5051297;28;20078;-89
2022/01/11 11:10:56;;;;;;;9.05;4.05;;;;;;;4.53;71.97;101577.50;5065387;28;20064;-91
2022/01/11 11:13:24;;;;;;;11.93;4.03;;;;;;;4.53;71.69;101579.38;5064981;28;20056;-89
2022/01/11 11:15:51;;;;;;;14.65;6.82;;;;;;;4.64;72.16;101580.78;5066070;28;20273;-90
2022/01/11 11:18:30;;;;;;;16.35;6.80;;;;;;;4.55;72.09;101591.69;5063715;28;20021;-91
2022/01/11 11:20:56;;;;;;;9.25;4.75;;;;;;;4.60;72.13;101587.56;5065896;28;20064;-89
2022/01/11 11:23:22;;;;;;;10.95;5.25;;;;;;;4.49;71.38;101595.09;5064591;28;20035;-89
2022/01/11 11:28:31;;;;;;;;;;;;;;;4.47;70.66;101586.34;5066782;28;20043;-90
2022/01/11 11:30:58;;;;;;;11.30;5.40;;;;;;;4.70;70.98;101588.19;5064757;28;20371;-89
2022/01/11 11:33:24;;;;;;;13.80;5.75;;;;;;;4.66;72.27;101590.41;5065942;28;20031;-89
2022/01/11 11:35:50;;;;;;;10.75;4.40;;;;;;;4.75;71.88;101588.50;5063398;28;20663;-88
2022/01/11 11:38:17;;;;;;;13.35;5.15;;;;;;;4.89;71.23;101583.31;5065294;28;20060;-89
2022/01/11 11:40:44;;;;;;;15.32;6.07;;;;;;;4.81;70.86;101588.78;5064571;28;20032;-90
2022/01/11 11:43:11;;;;;;;10.82;4.22;;;;;;;4.83;70.98;101584.03;5064821;28;20028;-90
2022/01/11 11:45:38;;;;;;;13.02;5.88;;;;;;;4.85;71.14;101579.28;5065125;28;20090;-89
2022/01/11 11:48:07;;;;;;;17.05;7.00;;;;;;;4.93;71.46;101581.94;5064308;28;20432;-87
2022/01/11 11:50:34;;;;;;;9.52;4.15;;;;;;;4.90;71.34;101575.00;5065675;28;20047;-88